ADDS METAR Data INFO
IDs: Format: Raw Decoded Include TAF

Data at: 0058 UTC 22 Oct 2017

KRST 220054Z 17013KT 10SM VCTS FEW031 BKN070 OVC085 19/16 A2976 RMK AO2 LTG DSNT S-W SLP074 T01940156
KRST 212354Z 18012KT 10SM OVC060 19/15 A2976 RMK AO2 SLP076 T01890150 10194 20178 55002
KRST 212254Z 17015KT 10SM FEW050 19/15 A2975 RMK AO2 PK WND 18027/2224 SLP072 T01890150
KRST 212154Z 17015KT 10SM OVC030 19/15 A2976 RMK AO2 SLP075 T01940150
KRST 212054Z 18019G25KT 10SM FEW031 BKN050 OVC060 19/15 A2977 RMK AO2 PK WND 15029/2003 SLP077 T01890150 51001
KRST 211954Z 17018G27KT 10SM SCT016 BKN040 OVC048 18/15 A2977 RMK AO2 PK WND 16030/1910 SLP077 T01830150
KRST 211950Z 17020G27KT 10SM SCT016 BKN040 OVC048 18/15 A2977 RMK AO2 PK WND 16030/1910
KRST 211854Z 17019G27KT 10SM BKN017 BKN021 OVC045 18/14 A2977 RMK AO2 PK WND 16031/1831 SLP077 T01780144
KRST 211754Z 17018G26KT 10SM BKN015 OVC044 18/15 A2978 RMK AO2 PK WND 17030/1735 SLP080 60008 T01780150 10178 20139 50002
KRST 211701Z 18020G29KT 10SM SCT014 BKN021 OVC043 17/14 A2978 RMK AO2 PK WND 19026/1701 T01720144
KRST 211654Z 18020G29KT 10SM BKN014 OVC045 17/14 A2978 RMK AO2 PK WND 17029/1654 SLP082 T01720144
KRST 211554Z 18017G26KT 10SM OVC017 16/14 A2979 RMK AO2 PK WND 16027/1537 SLP088 T01610139
KRST 211454Z 16015G24KT 10SM BKN016 OVC110 15/13 A2977 RMK AO2 SLP079 60008 T01500133 58005
KRST 211416Z 17016G21KT 10SM BKN017 BKN028 BKN095 14/13 A2979 RMK AO2 T01440133
KRST 211404Z 17015G21KT 10SM SCT022 BKN095 14/13 A2979 RMK AO2 LTG DSNT NE T01440133
KRST 211354Z 16017G25KT 10SM SCT022 BKN028 OVC095 14/13 A2979 RMK AO2 LTG DSNT NE AND E RAE49 SLP086 P0006 T01390133
KRST 211344Z 16015G22KT 7SM -RA BKN022 BKN030 OVC049 14/13 A2979 RMK AO2 LTG DSNT NE-S P0006 T01390133
KRST 211329Z 17014G25KT 5SM VCTS RA BR BKN022 BKN029 OVC090 14/13 A2981 RMK AO2 LTG DSNT E-S P0002 T01440128
KRST 211254Z 17016KT 10SM -RA BKN023 BKN028 OVC110 14/13 A2980 RMK AO2 LTG DSNT S AND SW RAE25B43 SLP088 P0002 T01440128
KRST 211222Z 16013G23KT 10SM -RA BKN023 BKN030 OVC100 14/13 A2977 RMK AO2 LTG DSNT NE AND E P0002 T01440128
KRST 211154Z 18016G22KT 9SM -RA FEW029 BKN075 OVC095 14/12 A2979 RMK AO2 LTG DSNT NE-SE RAB17 TSB21 SLP085 P0002 60002 70002 T01390122 10161 20139 53002
KRST 211142Z 16014G24KT 10SM -RA FEW026 FEW060 OVC075 14/12 A2978 RMK AO2 LTG DSNT N AND SE AND S RAB17 TSB21 P0001 T01440122
KRST 211127Z 17016G22KT 9SM -TSRA SCT028 BKN055 OVC070 14/12 A2979 RMK AO2 LTG DSNT ALQDS RAB17 TSB21 P0001 T01440117
KRST 211054Z 17012G19KT 10SM VCTS BKN048 BKN060 BKN075 15/11 A2978 RMK AO2 LTG DSNT SW-NW SLP080 T01500106
KRST 210954Z 16016G23KT 10SM BKN049 16/11 A2978 RMK AO2 SLP079 T01560106
KRST 210854Z AUTO 17016G24KT 10SM CLR 15/11 A2978 RMK AO2 PK WND 17027/0838 SLP080 T01500106 58009
KRST 210754Z AUTO 17015KT 10SM CLR 16/10 A2980 RMK AO2 PK WND 17026/0710 SLP087 T01560100
KRST 210654Z AUTO 17017G24KT 10SM CLR 16/10 A2981 RMK AO2 PK WND 18029/0636 SLP090 T01610100
KRST 210554Z AUTO 18017G26KT 10SM CLR 16/09 A2981 RMK AO2 PK WND 18030/0521 SLP090 T01610094 10189 20161 402440111 58002
KRST 210454Z AUTO 17021G28KT 10SM FEW120 17/09 A2981 RMK AO2 PK WND 18028/0453 SLP092 T01670094
KRST 210354Z AUTO 17019G28KT 10SM CLR 17/09 A2982 RMK AO2 PK WND 17028/0345 SLP094 T01670094
KRST 210254Z 17019G28KT 10SM CLR 17/09 A2982 RMK AO2 PK WND 18028/0247 SLP095 T01670089 58001
KRST 210154Z 17016G22KT 10SM CLR 17/08 A2981 RMK AO2 SLP095 T01720083
KRST 210054Z 17016G24KT 10SM CLR 18/08 A2982 RMK AO2 PK WND 18026/0038 SLP097 T01780083
KRST 202354Z 17015G21KT 10SM CLR 19/08 A2982 RMK AO2 SLP096 T01890083 10244 20189 56009
KRST 202254Z 17015G25KT 10SM CLR 20/08 A2982 RMK AO2 PK WND 17029/2212 SLP096 T02000078
KRST 202154Z 18022G32KT 10SM CLR 22/06 A2983 RMK AO2 PK WND 17032/2149 SLP098 T02220061
KRST 202054Z 17016G25KT 10SM CLR 23/07 A2985 RMK AO2 PK WND 17029/2021 SLP104 T02330072 56025
KRST 201954Z 18017G26KT 10SM CLR 23/08 A2986 RMK AO2 PK WND 17030/1937 SLP109 T02330078
KRST 201854Z 19019G27KT 10SM CLR 22/09 A2989 RMK AO2 PK WND 19030/1808 SLP121 T02220094
KRST 201754Z 18021G28KT 10SM CLR 23/11 A2992 RMK AO2 PK WND 18028/1753 SLP131 T02280111 10228 20117 58022
KRST 201654Z 20017KT 10SM CLR 21/12 A2996 RMK AO2 SLP142 T02110117
KRST 201554Z 20018KT 10SM CLR 19/11 A2998 RMK AO2 SLP151 T01890111
KRST 201454Z 19016KT 10SM CLR 17/11 A2999 RMK AO2 SLP156 T01670111 50001
KRST 201354Z 19013KT 10SM CLR 13/11 A3000 RMK AO2 SLP158 T01330106